sensor_id;sensor_type;location;lat;lon;timestamp;pressure;altitude;pressure_sealevel;temperature;humidity
55171;BME280;41060;47.510;8.680;2023-03-03T00:01:10;97265.16;;;3.06;52.07
55171;BME280;41060;47.510;8.680;2023-03-03T00:03:36;97266.19;;;3.02;51.30
55171;BME280;41060;47.510;8.680;2023-03-03T00:06:04;97261.84;;;2.83;52.03
55171;BME280;41060;47.510;8.680;2023-03-03T00:08:35;97141.50;;;1.91;52.39
55171;BME280;41060;47.510;8.680;2023-03-03T00:11:05;97227.22;;;2.60;51.70
55171;BME280;41060;47.510;8.680;2023-03-03T00:13:39;97264.25;;;2.88;51.89
55171;BME280;41060;47.510;8.680;2023-03-03T00:16:12;97275.25;;;2.94;52.03
55171;BME280;41060;47.510;8.680;2023-03-03T00:18:42;97274.28;;;2.97;51.38
55171;BME280;41060;47.510;8.680;2023-03-03T00:21:20;97271.44;;;3.02;51.08
55171;BME280;41060;47.510;8.680;2023-03-03T00:23:50;97267.84;;;3.04;51.40
55171;BME280;41060;47.510;8.680;2023-03-03T00:26:20;97240.69;;;2.88;51.54
55171;BME280;41060;47.510;8.680;2023-03-03T00:28:50;97271.06;;;3.09;51.44
55171;BME280;41060;47.510;8.680;2023-03-03T00:31:18;97262.38;;;3.09;51.62
55171;BME280;41060;47.510;8.680;2023-03-03T00:33:48;97263.22;;;3.09;52.10
55171;BME280;41060;47.510;8.680;2023-03-03T00:36:28;97268.31;;;3.12;51.58
55171;BME280;41060;47.510;8.680;2023-03-03T00:39:09;97237.50;;;3.00;51.64
55171;BME280;41060;47.510;8.680;2023-03-03T00:41:38;97263.72;;;3.17;51.69
55171;BME280;41060;47.510;8.680;2023-03-03T00:44:37;97198.91;;;2.86;51.67
55171;BME280;41060;47.510;8.680;2023-03-03T00:47:18;97259.75;;;3.27;51.83
55171;BME280;41060;47.510;8.680;2023-03-03T00:49:48;97250.75;;;3.33;51.37
55171;BME280;41060;47.510;8.680;2023-03-03T00:52:17;97214.81;;;3.01;51.81
55171;BME280;41060;47.510;8.680;2023-03-03T00:54:45;97162.59;;;2.80;51.02
55171;BME280;41060;47.510;8.680;2023-03-03T00:57:14;97254.91;;;3.37;51.66
55171;BME280;41060;47.510;8.680;2023-03-03T00:59:41;97259.28;;;3.36;51.50
55171;BME280;41060;47.510;8.680;2023-03-03T01:02:08;97252.44;;;3.34;51.83
55171;BME280;41060;47.510;8.680;2023-03-03T01:04:37;97247.22;;;3.34;51.88
55171;BME280;41060;47.510;8.680;2023-03-03T01:07:05;97263.25;;;3.45;51.84
55171;BME280;41060;47.510;8.680;2023-03-03T01:09:31;97262.56;;;3.42;51.86
55171;BME280;41060;47.510;8.680;2023-03-03T01:11:59;97261.66;;;3.43;51.54
55171;BME280;41060;47.510;8.680;2023-03-03T01:14:26;97256.97;;;3.49;51.71
55171;BME280;41060;47.510;8.680;2023-03-03T01:16:53;97227.25;;;3.31;52.04
55171;BME280;41060;47.510;8.680;2023-03-03T01:19:19;97254.56;;;3.45;51.43
55171;BME280;41060;47.510;8.680;2023-03-03T01:21:47;97253.19;;;3.36;52.00
55171;BME280;41060;47.510;8.680;2023-03-03T01:24:13;97200.69;;;2.86;53.15
55171;BME280;41060;47.510;8.680;2023-03-03T01:26:40;97254.88;;;3.20;52.22
55171;BME280;41060;47.510;8.680;2023-03-03T01:29:08;97240.56;;;3.27;52.40
55171;BME280;41060;47.510;8.680;2023-03-03T01:31:35;97206.97;;;3.01;52.05
55171;BME280;41060;47.510;8.680;2023-03-03T01:34:01;97253.09;;;3.39;51.71
55171;BME280;41060;47.510;8.680;2023-03-03T01:36:29;97255.28;;;3.48;52.37
55171;BME280;41060;47.510;8.680;2023-03-03T01:38:56;97193.19;;;3.14;51.83
55171;BME280;41060;47.510;8.680;2023-03-03T01:41:22;97253.19;;;3.55;51.37
55171;BME280;41060;47.510;8.680;2023-03-03T01:43:53;97250.19;;;3.62;51.39
55171;BME280;41060;47.510;8.680;2023-03-03T01:46:39;97239.66;;;3.64;51.77
55171;BME280;41060;47.510;8.680;2023-03-03T01:49:12;97246.41;;;3.68;51.69
55171;BME280;41060;47.510;8.680;2023-03-03T01:51:46;97253.28;;;3.70;51.41
55171;BME280;41060;47.510;8.680;2023-03-03T01:54:18;97250.41;;;3.75;51.29
55171;BME280;41060;47.510;8.680;2023-03-03T01:56:46;97252.25;;;3.73;51.44
55171;BME280;41060;47.510;8.680;2023-03-03T01:59:17;97251.34;;;3.74;51.94
55171;BME280;41060;47.510;8.680;2023-03-03T02:01:48;97201.75;;;3.54;50.61
55171;BME280;41060;47.510;8.680;2023-03-03T02:04:16;97253.50;;;3.83;51.28
55171;BME280;41060;47.510;8.680;2023-03-03T02:06:46;97221.31;;;3.64;51.15
55171;BME280;41060;47.510;8.680;2023-03-03T02:09:21;97195.72;;;3.52;51.62
55171;BME280;41060;47.510;8.680;2023-03-03T02:11:55;97255.28;;;3.83;51.32
55171;BME280;41060;47.510;8.680;2023-03-03T02:14:24;97243.03;;;3.83;51.11
55171;BME280;41060;47.510;8.680;2023-03-03T02:16:52;97244.59;;;3.87;50.97
55171;BME280;41060;47.510;8.680;2023-03-03T02:19:23;97216.16;;;3.62;51.18
55171;BME280;41060;47.510;8.680;2023-03-03T02:21:54;97220.75;;;3.74;50.85
55171;BME280;41060;47.510;8.680;2023-03-03T02:24:24;97243.50;;;3.91;51.57
55171;BME280;41060;47.510;8.680;2023-03-03T02:26:54;97177.41;;;3.52;51.71
55171;BME280;41060;47.510;8.680;2023-03-03T02:29:21;97236.72;;;3.87;51.97
55171;BME280;41060;47.510;8.680;2023-03-03T02:31:48;97239.34;;;3.87;51.99
55171;BME280;41060;47.510;8.680;2023-03-03T02:34:16;97239.09;;;3.74;52.34
55171;BME280;41060;47.510;8.680;2023-03-03T02:36:43;97235.31;;;3.80;52.10
55171;BME280;41060;47.510;8.680;2023-03-03T02:39:13;97235.88;;;3.87;51.63
55171;BME280;41060;47.510;8.680;2023-03-03T02:41:45;97209.50;;;3.72;51.05
55171;BME280;41060;47.510;8.680;2023-03-03T02:44:19;97193.38;;;3.64;51.20
55171;BME280;41060;47.510;8.680;2023-03-03T02:46:48;97237.47;;;3.89;51.48
55171;BME280;41060;47.510;8.680;2023-03-03T02:49:17;97254.75;;;3.76;52.29
55171;BME280;41060;47.510;8.680;2023-03-03T02:51:44;97247.41;;;3.48;53.46
55171;BME280;41060;47.510;8.680;2023-03-03T02:54:12;97243.75;;;3.33;53.43
55171;BME280;41060;47.510;8.680;2023-03-03T02:56:39;97203.47;;;2.83;54.87
55171;BME280;41060;47.510;8.680;2023-03-03T02:59:06;97182.63;;;2.81;54.26
55171;BME280;41060;47.510;8.680;2023-03-03T03:01:35;97249.03;;;3.32;53.63
55171;BME280;41060;47.510;8.680;2023-03-03T03:04:06;97245.47;;;3.52;53.45
55171;BME280;41060;47.510;8.680;2023-03-03T03:06:34;97241.25;;;3.66;53.01
55171;BME280;41060;47.510;8.680;2023-03-03T03:09:01;97238.19;;;3.76;52.15
55171;BME280;41060;47.510;8.680;2023-03-03T03:11:27;97228.94;;;3.86;52.46
55171;BME280;41060;47.510;8.680;2023-03-03T03:13:54;97187.09;;;3.67;52.08
55171;BME280;41060;47.510;8.680;2023-03-03T03:16:21;97202.50;;;3.90;51.47
55171;BME280;41060;47.510;8.680;2023-03-03T03:18:49;97225.88;;;4.10;52.49
55171;BME280;41060;47.510;8.680;2023-03-03T03:21:16;97170.59;;;3.82;51.71
55171;BME280;41060;47.510;8.680;2023-03-03T03:23:46;97230.25;;;4.27;50.96
55171;BME280;41060;47.510;8.680;2023-03-03T03:26:15;97219.44;;;4.33;51.61
55171;BME280;41060;47.510;8.680;2023-03-03T03:28:42;97228.34;;;4.31;51.84
55171;BME280;41060;47.510;8.680;2023-03-03T03:31:09;97230.78;;;4.34;50.88
55171;BME280;41060;47.510;8.680;2023-03-03T03:33:36;97154.34;;;3.93;51.02
55171;BME280;41060;47.510;8.680;2023-03-03T03:36:05;97223.84;;;4.33;51.52
55171;BME280;41060;47.510;8.680;2023-03-03T03:38:35;97146.81;;;3.87;51.25
55171;BME280;41060;47.510;8.680;2023-03-03T03:41:03;97218.28;;;4.39;51.15
55171;BME280;41060;47.510;8.680;2023-03-03T03:43:30;97213.97;;;4.38;51.27
55171;BME280;41060;47.510;8.680;2023-03-03T03:45:57;97216.50;;;4.39;51.48
55171;BME280;41060;47.510;8.680;2023-03-03T03:48:24;97221.66;;;4.41;51.49
55171;BME280;41060;47.510;8.680;2023-03-03T03:50:51;97197.88;;;4.28;50.91
55171;BME280;41060;47.510;8.680;2023-03-03T03:53:19;97162.84;;;4.13;51.46
55171;BME280;41060;47.510;8.680;2023-03-03T03:55:46;97213.72;;;4.42;51.02
55171;BME280;41060;47.510;8.680;2023-03-03T03:58:13;97176.97;;;4.27;51.45
55171;BME280;41060;47.510;8.680;2023-03-03T04:00:42;97214.22;;;4.49;51.37
55171;BME280;41060;47.510;8.680;2023-03-03T04:03:09;97196.53;;;4.37;51.16
55171;BME280;41060;47.510;8.680;2023-03-03T04:05:36;97173.59;;;4.09;52.04
55171;BME280;41060;47.510;8.680;2023-03-03T04:08:03;97173.09;;;3.51;53.70
55171;BME280;41060;47.510;8.680;2023-03-03T04:10:34;97077.41;;;2.93;53.73
55171;BME280;41060;47.510;8.680;2023-03-03T04:13:01;97208.75;;;3.70;53.93
55171;BME280;41060;47.510;8.680;2023-03-03T04:15:27;97226.78;;;3.59;54.63
55171;BME280;41060;47.510;8.680;2023-03-03T04:17:54;97233.84;;;3.40;54.94
55171;BME280;41060;47.510;8.680;2023-03-03T04:20:21;97233.41;;;3.30;55.15
55171;BME280;41060;47.510;8.680;2023-03-03T04:22:48;97177.75;;;2.91;55.74
55171;BME280;41060;47.510;8.680;2023-03-03T04:25:15;97235.63;;;3.21;56.10
55171;BME280;41060;47.510;8.680;2023-03-03T04:27:44;97232.09;;;3.41;54.90
55171;BME280;41060;47.510;8.680;2023-03-03T04:30:13;97224.84;;;3.46;55.13
55171;BME280;41060;47.510;8.680;2023-03-03T04:32:40;97157.66;;;3.10;54.37
55171;BME280;41060;47.510;8.680;2023-03-03T04:35:08;97226.31;;;3.68;54.15
55171;BME280;41060;47.510;8.680;2023-03-03T04:37:36;97235.25;;;3.64;55.25
55171;BME280;41060;47.510;8.680;2023-03-03T04:40:03;97230.72;;;3.68;54.09
55171;BME280;41060;47.510;8.680;2023-03-03T04:42:31;97196.47;;;3.36;55.25
55171;BME280;41060;47.510;8.680;2023-03-03T04:44:58;97227.63;;;3.60;55.10
55171;BME280;41060;47.510;8.680;2023-03-03T04:47:25;97230.78;;;3.66;54.75
55171;BME280;41060;47.510;8.680;2023-03-03T04:49:52;97174.50;;;3.22;54.45
55171;BME280;41060;47.510;8.680;2023-03-03T04:52:22;97226.22;;;3.53;55.57
55171;BME280;41060;47.510;8.680;2023-03-03T04:54:48;97236.63;;;3.54;55.30
55171;BME280;41060;47.510;8.680;2023-03-03T04:57:15;97242.56;;;3.41;56.10
55171;BME280;41060;47.510;8.680;2023-03-03T04:59:42;97239.69;;;3.45;55.63
55171;BME280;41060;47.510;8.680;2023-03-03T05:02:10;97242.47;;;3.42;55.73
55171;BME280;41060;47.510;8.680;2023-03-03T05:04:37;97246.34;;;3.33;55.91
55171;BME280;41060;47.510;8.680;2023-03-03T05:07:04;97215.16;;;3.12;55.67
55171;BME280;41060;47.510;8.680;2023-03-03T05:09:30;97240.47;;;3.28;56.23
55171;BME280;41060;47.510;8.680;2023-03-03T05:11:58;97222.91;;;3.13;56.47
55171;BME280;41060;47.510;8.680;2023-03-03T05:14:25;97243.41;;;3.41;56.23
55171;BME280;41060;47.510;8.680;2023-03-03T05:16:52;97168.97;;;2.75;55.85
55171;BME280;41060;47.510;8.680;2023-03-03T05:19:21;97169.25;;;2.87;56.03
55171;BME280;41060;47.510;8.680;2023-03-03T05:21:53;97191.50;;;3.13;55.82
55171;BME280;41060;47.510;8.680;2023-03-03T05:24:20;97259.19;;;3.40;55.75
55171;BME280;41060;47.510;8.680;2023-03-03T05:26:46;97250.94;;;3.28;56.51
55171;BME280;41060;47.510;8.680;2023-03-03T05:29:13;97171.59;;;2.75;56.06
55171;BME280;41060;47.510;8.680;2023-03-03T05:31:40;97258.31;;;3.39;56.39
55171;BME280;41060;47.510;8.680;2023-03-03T05:34:07;97260.63;;;3.45;55.61
55171;BME280;41060;47.510;8.680;2023-03-03T05:36:35;97254.19;;;3.52;55.99
55171;BME280;41060;47.510;8.680;2023-03-03T05:39:02;97261.06;;;3.72;58.77
55171;BME280;41060;47.510;8.680;2023-03-03T05:41:29;97259.34;;;3.88;57.53
55171;BME280;41060;47.510;8.680;2023-03-03T05:43:55;97253.50;;;4.00;57.14
55171;BME280;41060;47.510;8.680;2023-03-03T05:46:23;97253.72;;;4.13;56.17
55171;BME280;41060;47.510;8.680;2023-03-03T05:48:49;97246.16;;;4.24;55.68
55171;BME280;41060;47.510;8.680;2023-03-03T05:51:16;97204.31;;;4.05;55.31
55171;BME280;41060;47.510;8.680;2023-03-03T05:53:44;97259.09;;;4.27;54.27
55171;BME280;41060;47.510;8.680;2023-03-03T05:56:11;97263.66;;;4.06;54.32
55171;BME280;41060;47.510;8.680;2023-03-03T05:58:37;97262.22;;;4.01;54.27
55171;BME280;41060;47.510;8.680;2023-03-03T06:01:04;97261.91;;;3.90;54.46
55171;BME280;41060;47.510;8.680;2023-03-03T06:03:31;97245.34;;;3.55;54.84
55171;BME280;41060;47.510;8.680;2023-03-03T06:05:57;97267.13;;;3.55;56.02
55171;BME280;41060;47.510;8.680;2023-03-03T06:08:25;97272.00;;;3.63;56.59
55171;BME280;41060;47.510;8.680;2023-03-03T06:10:53;97273.75;;;3.62;56.41
55171;BME280;41060;47.510;8.680;2023-03-03T06:13:19;97259.66;;;3.48;57.16
55171;BME280;41060;47.510;8.680;2023-03-03T06:15:47;97275.28;;;3.49;56.58
55171;BME280;41060;47.510;8.680;2023-03-03T06:18:13;97281.00;;;3.57;56.86
55171;BME280;41060;47.510;8.680;2023-03-03T06:20:40;97287.53;;;3.66;55.93
55171;BME280;41060;47.510;8.680;2023-03-03T06:23:07;97292.56;;;3.70;56.21
55171;BME280;41060;47.510;8.680;2023-03-03T06:25:33;97257.72;;;3.51;56.20
55171;BME280;41060;47.510;8.680;2023-03-03T06:28:02;97294.56;;;3.83;55.42
55171;BME280;41060;47.510;8.680;2023-03-03T06:30:29;97292.03;;;3.98;54.42
55171;BME280;41060;47.510;8.680;2023-03-03T06:32:56;97241.66;;;3.76;54.21
55171;BME280;41060;47.510;8.680;2023-03-03T06:35:22;97291.84;;;4.19;53.87
55171;BME280;41060;47.510;8.680;2023-03-03T06:37:50;97248.47;;;3.96;54.04
55171;BME280;41060;47.510;8.680;2023-03-03T06:40:17;97295.19;;;4.22;54.50
55171;BME280;41060;47.510;8.680;2023-03-03T06:42:43;97298.25;;;4.30;54.31
55171;BME280;41060;47.510;8.680;2023-03-03T06:45:12;97293.69;;;4.34;54.19
55171;BME280;41060;47.510;8.680;2023-03-03T06:47:39;97296.16;;;4.37;53.85
55171;BME280;41060;47.510;8.680;2023-03-03T06:50:06;97234.78;;;3.91;54.17
55171;BME280;41060;47.510;8.680;2023-03-03T06:52:34;97333.56;;;4.23;54.90
55171;BME280;41060;47.510;8.680;2023-03-03T06:55:09;97254.66;;;3.95;54.23
55171;BME280;41060;47.510;8.680;2023-03-03T06:57:37;97320.16;;;4.46;54.23
55171;BME280;41060;47.510;8.680;2023-03-03T07:00:22;97317.28;;;4.51;53.93
55171;BME280;41060;47.510;8.680;2023-03-03T07:02:55;97259.56;;;4.18;53.67
55171;BME280;41060;47.510;8.680;2023-03-03T07:05:28;97323.28;;;4.53;53.77
55171;BME280;41060;47.510;8.680;2023-03-03T07:07:55;97301.81;;;4.12;55.29
55171;BME280;41060;47.510;8.680;2023-03-03T07:10:25;97314.69;;;3.99;55.83
55171;BME280;41060;47.510;8.680;2023-03-03T07:12:52;97305.91;;;3.83;56.43
55171;BME280;41060;47.510;8.680;2023-03-03T07:15:29;97326.41;;;3.92;56.19
55171;BME280;41060;47.510;8.680;2023-03-03T07:17:58;97284.00;;;3.67;55.70
55171;BME280;41060;47.510;8.680;2023-03-03T07:20:32;97318.84;;;3.86;56.58
55171;BME280;41060;47.510;8.680;2023-03-03T07:22:59;97246.88;;;3.42;55.88
55171;BME280;41060;47.510;8.680;2023-03-03T07:25:30;97234.19;;;3.32;56.22
55171;BME280;41060;47.510;8.680;2023-03-03T07:27:59;97344.97;;;4.05;56.08
55171;BME280;41060;47.510;8.680;2023-03-03T07:30:39;97348.44;;;4.05;55.97
55171;BME280;41060;47.510;8.680;2023-03-03T07:33:16;97343.19;;;4.05;56.46
55171;BME280;41060;47.510;8.680;2023-03-03T07:35:45;97354.06;;;4.32;55.52
55171;BME280;41060;47.510;8.680;2023-03-03T07:38:24;97342.38;;;4.55;55.17
55171;BME280;41060;47.510;8.680;2023-03-03T07:40:57;97307.97;;;4.45;54.41
55171;BME280;41060;47.510;8.680;2023-03-03T07:43:33;97349.00;;;4.79;54.06
55171;BME280;41060;47.510;8.680;2023-03-03T07:46:24;97346.47;;;4.94;53.67
55171;BME280;41060;47.510;8.680;2023-03-03T07:48:57;97349.53;;;5.02;53.70
55171;BME280;41060;47.510;8.680;2023-03-03T07:51:26;97350.25;;;5.05;53.30
55171;BME280;41060;47.510;8.680;2023-03-03T07:54:00;97343.72;;;5.12;53.70
55171;BME280;41060;47.510;8.680;2023-03-03T07:56:38;97347.72;;;5.19;53.28
55171;BME280;41060;47.510;8.680;2023-03-03T07:59:17;97354.31;;;5.26;52.79
55171;BME280;41060;47.510;8.680;2023-03-03T08:01:50;97355.75;;;5.32;52.83
55171;BME280;41060;47.510;8.680;2023-03-03T08:04:21;97316.72;;;5.10;52.88
55171;BME280;41060;47.510;8.680;2023-03-03T08:06:54;97364.84;;;5.42;53.13
55171;BME280;41060;47.510;8.680;2023-03-03T08:15:19;97351.69;;;5.58;52.31
55171;BME280;41060;47.510;8.680;2023-03-03T08:17:49;97344.41;;;5.47;52.11
55171;BME280;41060;47.510;8.680;2023-03-03T08:20:40;97357.19;;;5.69;51.92
55171;BME280;41060;47.510;8.680;2023-03-03T08:23:09;97361.44;;;5.72;51.53
55171;BME280;41060;47.510;8.680;2023-03-03T08:25:36;97361.69;;;5.67;51.25
55171;BME280;41060;47.510;8.680;2023-03-03T08:28:03;97364.22;;;5.68;51.12
55171;BME280;41060;47.510;8.680;2023-03-03T08:30:30;97262.44;;;5.11;51.57
55171;BME280;41060;47.510;8.680;2023-03-03T08:32:59;97361.59;;;5.37;52.53
55171;BME280;41060;47.510;8.680;2023-03-03T08:35:25;97351.09;;;5.37;52.35
55171;BME280;41060;47.510;8.680;2023-03-03T08:37:56;97361.44;;;5.24;52.19
55171;BME280;41060;47.510;8.680;2023-03-03T08:40:22;97199.00;;;4.07;52.66
55171;BME280;41060;47.510;8.680;2023-03-03T08:42:49;97370.28;;;5.06;53.00
55171;BME280;41060;47.510;8.680;2023-03-03T08:45:16;97370.53;;;5.02;52.91
55171;BME280;41060;47.510;8.680;2023-03-03T08:47:44;97366.69;;;4.91;52.52
55171;BME280;41060;47.510;8.680;2023-03-03T08:50:16;97174.84;;;3.85;52.51
55171;BME280;41060;47.510;8.680;2023-03-03T08:52:44;97325.22;;;4.82;52.41
55171;BME280;41060;47.510;8.680;2023-03-03T08:55:11;97374.78;;;5.04;51.99
55171;BME280;41060;47.510;8.680;2023-03-03T08:57:38;97373.16;;;5.02;52.27
55171;BME280;41060;47.510;8.680;2023-03-03T09:00:07;97338.38;;;4.65;52.56
55171;BME280;41060;47.510;8.680;2023-03-03T09:02:33;97348.88;;;4.65;52.59
55171;BME280;41060;47.510;8.680;2023-03-03T09:05:00;97317.66;;;4.43;52.31
55171;BME280;41060;47.510;8.680;2023-03-03T09:07:29;97291.19;;;4.48;52.65
55171;BME280;41060;47.510;8.680;2023-03-03T09:09:55;97380.22;;;5.17;52.33
55171;BME280;41060;47.510;8.680;2023-03-03T09:12:28;97286.84;;;4.64;51.87
55171;BME280;41060;47.510;8.680;2023-03-03T09:14:57;97381.84;;;5.19;51.67
55171;BME280;41060;47.510;8.680;2023-03-03T09:17:29;97392.94;;;5.24;51.94
55171;BME280;41060;47.510;8.680;2023-03-03T09:20:03;97381.00;;;5.50;51.03
55171;BME280;41060;47.510;8.680;2023-03-03T09:22:37;97360.94;;;5.49;50.90
55171;BME280;41060;47.510;8.680;2023-03-03T09:25:13;97371.19;;;5.69;50.85
55171;BME280;41060;47.510;8.680;2023-03-03T09:27:43;97324.41;;;5.29;50.29
55171;BME280;41060;47.510;8.680;2023-03-03T09:30:27;97381.88;;;5.82;50.65
55171;BME280;41060;47.510;8.680;2023-03-03T09:32:56;97395.50;;;5.89;50.56
55171;BME280;41060;47.510;8.680;2023-03-03T09:35:34;97312.19;;;5.59;50.09
55171;BME280;41060;47.510;8.680;2023-03-03T09:38:14;97384.09;;;6.20;49.92
55171;BME280;41060;47.510;8.680;2023-03-03T09:40:52;97377.84;;;6.22;49.24
55171;BME280;41060;47.510;8.680;2023-03-03T09:43:27;97379.41;;;5.95;50.02
55171;BME280;41060;47.510;8.680;2023-03-03T09:46:03;97384.47;;;5.66;50.24
55171;BME280;41060;47.510;8.680;2023-03-03T09:48:43;97368.56;;;5.69;50.29
55171;BME280;41060;47.510;8.680;2023-03-03T09:51:24;97390.06;;;6.07;49.65
55171;BME280;41060;47.510;8.680;2023-03-03T09:54:10;97380.75;;;6.32;49.61
55171;BME280;41060;47.510;8.680;2023-03-03T09:56:46;97374.13;;;6.40;48.69
55171;BME280;41060;47.510;8.680;2023-03-03T09:59:25;97339.63;;;6.31;48.88
55171;BME280;41060;47.510;8.680;2023-03-03T10:02:27;97372.28;;;6.71;48.62
55171;BME280;41060;47.510;8.680;2023-03-03T10:05:18;97369.50;;;6.74;48.41
55171;BME280;41060;47.510;8.680;2023-03-03T10:07:57;97374.38;;;6.80;48.55
55171;BME280;41060;47.510;8.680;2023-03-03T10:10:46;97374.47;;;6.93;48.45
55171;BME280;41060;47.510;8.680;2023-03-03T10:13:22;97379.03;;;7.05;48.28
55171;BME280;41060;47.510;8.680;2023-03-03T10:16:05;97379.03;;;7.05;48.01
55171;BME280;41060;47.510;8.680;2023-03-03T10:18:41;97385.22;;;7.18;47.43
55171;BME280;41060;47.510;8.680;2023-03-03T10:21:15;97347.41;;;7.05;47.13
55171;BME280;41060;47.510;8.680;2023-03-03T10:23:51;97376.63;;;7.29;47.21
55171;BME280;41060;47.510;8.680;2023-03-03T10:26:30;97342.78;;;7.08;47.33
55171;BME280;41060;47.510;8.680;2023-03-03T10:29:10;97389.16;;;7.39;46.82
55171;BME280;41060;47.510;8.680;2023-03-03T10:31:48;97345.97;;;7.13;46.24
55171;BME280;41060;47.510;8.680;2023-03-03T10:34:50;97382.19;;;7.38;46.89
55171;BME280;41060;47.510;8.680;2023-03-03T10:37:23;97382.28;;;7.37;46.94
55171;BME280;41060;47.510;8.680;2023-03-03T10:40:02;97375.16;;;7.24;46.55
55171;BME280;41060;47.510;8.680;2023-03-03T10:45:40;97382.84;;;7.42;46.23
55171;BME280;41060;47.510;8.680;2023-03-03T10:48:41;97375.59;;;7.45;46.67
55171;BME280;41060;47.510;8.680;2023-03-03T10:51:21;97354.47;;;7.18;46.72
55171;BME280;41060;47.510;8.680;2023-03-03T10:53:59;97356.88;;;7.21;47.00
55171;BME280;41060;47.510;8.680;2023-03-03T10:56:37;97386.50;;;7.39;47.00
55171;BME280;41060;47.510;8.680;2023-03-03T10:59:18;97381.78;;;7.44;46.52
55171;BME280;41060;47.510;8.680;2023-03-03T11:01:57;97366.28;;;7.40;46.56
55171;BME280;41060;47.510;8.680;2023-03-03T11:04:42;97382.25;;;7.51;46.40
55171;BME280;41060;47.510;8.680;2023-03-03T11:07:18;97362.03;;;7.51;46.44
55171;BME280;41060;47.510;8.680;2023-03-03T11:10:04;97366.31;;;7.81;46.14
55171;BME280;41060;47.510;8.680;2023-03-03T11:12:48;97367.78;;;7.99;46.56
55171;BME280;41060;47.510;8.680;2023-03-03T11:15:28;97370.72;;;8.34;56.52
55171;BME280;41060;47.510;8.680;2023-03-03T11:18:10;97368.78;;;8.88;49.86
55171;BME280;41060;47.510;8.680;2023-03-03T11:20:45;97358.66;;;8.95;45.78
55171;BME280;41060;47.510;8.680;2023-03-03T11:23:31;97364.88;;;8.94;44.57
55171;BME280;41060;47.510;8.680;2023-03-03T11:26:08;97300.94;;;8.25;44.35
55171;BME280;41060;47.510;8.680;2023-03-03T11:28:52;97364.31;;;8.38;45.07
55171;BME280;41060;47.510;8.680;2023-03-03T11:31:29;97342.41;;;7.43;46.69
55171;BME280;41060;47.510;8.680;2023-03-03T11:34:04;97338.09;;;7.28;47.00
55171;BME280;41060;47.510;8.680;2023-03-03T11:36:37;97359.63;;;7.20;47.41
55171;BME280;41060;47.510;8.680;2023-03-03T11:39:08;97337.59;;;7.21;47.44
55171;BME280;41060;47.510;8.680;2023-03-03T11:41:41;97356.72;;;7.24;47.30
55171;BME280;41060;47.510;8.680;2023-03-03T11:44:16;97340.03;;;7.38;47.63
55171;BME280;41060;47.510;8.680;2023-03-03T11:46:48;97297.88;;;7.38;46.72
55171;BME280;41060;47.510;8.680;2023-03-03T11:49:24;97342.25;;;7.99;46.43
55171;BME280;41060;47.510;8.680;2023-03-03T11:52:01;97306.72;;;8.05;46.11
55171;BME280;41060;47.510;8.680;2023-03-03T11:54:32;97330.09;;;8.36;45.96
55171;BME280;41060;47.510;8.680;2023-03-03T11:57:12;97320.31;;;8.51;45.19
55171;BME280;41060;47.510;8.680;2023-03-03T11:59:57;97327.69;;;8.71;45.47
55171;BME280;41060;47.510;8.680;2023-03-03T12:05:28;97298.94;;;8.92;44.65
55171;BME280;41060;47.510;8.680;2023-03-03T12:08:04;97260.44;;;8.52;44.34
55171;BME280;41060;47.510;8.680;2023-03-03T12:10:39;97321.91;;;8.54;46.01
55171;BME280;41060;47.510;8.680;2023-03-03T12:13:15;97316.41;;;8.82;45.87
55171;BME280;41060;47.510;8.680;2023-03-03T12:15:54;97313.72;;;9.07;45.48
55171;BME280;41060;47.510;8.680;2023-03-03T12:18:37;97310.94;;;9.22;44.28
55171;BME280;41060;47.510;8.680;2023-03-03T12:21:18;97312.88;;;9.07;43.65
55171;BME280;41060;47.510;8.680;2023-03-03T12:24:16;97319.13;;;9.06;44.87
55171;BME280;41060;47.510;8.680;2023-03-03T12:26:50;97308.94;;;9.38;43.86
55171;BME280;41060;47.510;8.680;2023-03-03T12:29:25;97310.19;;;9.58;44.23
55171;BME280;41060;47.510;8.680;2023-03-03T12:32:01;97234.72;;;9.04;43.29
55171;BME280;41060;47.510;8.680;2023-03-03T12:34:35;97300.25;;;9.48;43.11
55171;BME280;41060;47.510;8.680;2023-03-03T12:37:20;97276.63;;;9.34;43.42
55171;BME280;41060;47.510;8.680;2023-03-03T12:39:58;97305.31;;;9.51;43.72
55171;BME280;41060;47.510;8.680;2023-03-03T12:42:37;97304.66;;;9.61;44.19
55171;BME280;41060;47.510;8.680;2023-03-03T12:45:17;97176.66;;;9.15;43.88
55171;BME280;41060;47.510;8.680;2023-03-03T12:47:50;97289.63;;;10.09;43.41
55171;BME280;41060;47.510;8.680;2023-03-03T12:50:26;97283.34;;;10.45;41.71
55171;BME280;41060;47.510;8.680;2023-03-03T12:53:03;97252.06;;;10.50;41.48
55171;BME280;41060;47.510;8.680;2023-03-03T12:55:43;97283.41;;;10.21;41.97
55171;BME280;41060;47.510;8.680;2023-03-03T12:58:24;97281.13;;;10.16;42.78
55171;BME280;41060;47.510;8.680;2023-03-03T13:00:59;97275.38;;;10.33;42.60
55171;BME280;41060;47.510;8.680;2023-03-03T13:03:37;97194.44;;;9.85;42.07
55171;BME280;41060;47.510;8.680;2023-03-03T13:06:14;97203.44;;;9.82;42.35
55171;BME280;41060;47.510;8.680;2023-03-03T13:09:05;97182.97;;;9.73;42.15
55171;BME280;41060;47.510;8.680;2023-03-03T13:11:48;97277.78;;;10.37;41.40
55171;BME280;41060;47.510;8.680;2023-03-03T13:14:30;97274.63;;;10.20;42.44
55171;BME280;41060;47.510;8.680;2023-03-03T13:17:06;97181.25;;;9.61;42.56
55171;BME280;41060;47.510;8.680;2023-03-03T13:19:39;97263.72;;;10.36;42.72
55171;BME280;41060;47.510;8.680;2023-03-03T13:22:11;97279.56;;;10.71;41.17
55171;BME280;41060;47.510;8.680;2023-03-03T13:24:48;97222.22;;;10.37;41.05
55171;BME280;41060;47.510;8.680;2023-03-03T13:27:22;97282.06;;;10.61;41.34
55171;BME280;41060;47.510;8.680;2023-03-03T13:29:56;97276.63;;;10.52;41.43
55171;BME280;41060;47.510;8.680;2023-03-03T13:32:30;97273.34;;;10.37;41.83
55171;BME280;41060;47.510;8.680;2023-03-03T13:35:04;97262.22;;;10.78;42.13
55171;BME280;41060;47.510;8.680;2023-03-03T13:37:38;97276.19;;;11.14;41.16
55171;BME280;41060;47.510;8.680;2023-03-03T13:40:15;97267.28;;;11.26;40.80
55171;BME280;41060;47.510;8.680;2023-03-03T13:42:46;97231.53;;;10.98;40.27
55171;BME280;41060;47.510;8.680;2023-03-03T13:45:18;97261.16;;;10.92;41.77
55171;BME280;41060;47.510;8.680;2023-03-03T13:47:54;97264.16;;;11.21;40.81